createdAt,value
2017-11-23T00:00:39.422Z,59.58
2017-11-23T00:03:08.348Z,59.37
2017-11-23T00:05:36.009Z,60.26
2017-11-23T00:08:03.681Z,59.20
2017-11-23T00:10:32.265Z,58.93
2017-11-23T00:12:59.868Z,58.62
2017-11-23T00:15:29.442Z,59.83
2017-11-23T00:17:57.095Z,60.93
2017-11-23T00:20:26.532Z,60.78
2017-11-23T00:22:54.173Z,61.80
2017-11-23T00:25:53.177Z,60.66
2017-11-23T00:28:21.958Z,60.54
2017-11-23T00:30:50.446Z,60.52
2017-11-23T00:33:18.130Z,61.17
2017-11-23T00:35:46.597Z,61.49
2017-11-23T00:45:03.829Z,62.83
2017-11-23T00:47:31.639Z,60.73
2017-11-23T00:49:59.302Z,60.82
2017-11-23T00:52:26.989Z,61.05
2017-11-23T00:54:54.611Z,61.07
2017-11-23T00:57:23.084Z,62.33
2017-11-23T00:59:50.840Z,60.95
2017-11-23T01:02:19.911Z,60.36
2017-11-23T01:04:47.545Z,62.06
2017-11-23T01:07:15.209Z,60.72
2017-11-23T01:09:42.940Z,59.94
2017-11-23T01:12:10.548Z,60.09
2017-11-23T01:14:38.928Z,59.98
2017-11-23T01:17:06.570Z,59.42
2017-11-23T01:19:34.217Z,61.71
2017-11-23T01:25:02.379Z,62.78
2017-11-23T01:27:30.040Z,62.83
2017-11-23T01:29:57.899Z,62.70
2017-11-23T01:32:25.709Z,65.12
2017-11-23T01:34:54.304Z,63.54
2017-11-23T01:37:22.802Z,64.22
2017-11-23T01:39:50.471Z,63.80
2017-11-23T01:42:18.186Z,61.72
2017-11-23T01:44:46.475Z,62.97
2017-11-23T01:47:15.507Z,63.57
2017-11-23T01:49:43.271Z,62.51
2017-11-23T01:52:12.328Z,62.87
2017-11-23T01:54:42.912Z,61.85
2017-11-23T01:57:11.473Z,63.81
2017-11-23T01:59:43.058Z,62.49
2017-11-23T02:02:10.778Z,63.89
2017-11-23T02:04:38.436Z,64.77
2017-11-23T02:07:07.405Z,64.07
2017-11-23T02:09:35.281Z,62.42
2017-11-23T02:12:03.014Z,62.99
2017-11-23T02:14:30.706Z,62.70
2017-11-23T02:16:58.351Z,62.34
2017-11-23T02:19:26.688Z,63.16
2017-11-23T02:21:54.393Z,61.94
2017-11-23T02:24:22.201Z,61.94
2017-11-23T02:26:52.170Z,64.12
2017-11-23T02:29:22.519Z,64.05
2017-11-23T02:31:55.212Z,63.11
2017-11-23T02:34:22.899Z,64.23
2017-11-23T02:36:50.713Z,65.79
2017-11-23T02:39:18.486Z,64.26
2017-11-23T02:41:46.874Z,64.87
2017-11-23T03:16:17.371Z,62.49
2017-11-23T03:18:45.841Z,62.13
2017-11-23T03:21:16.988Z,62.19
2017-11-23T03:23:44.886Z,63.77
2017-11-23T03:26:12.820Z,63.20
2017-11-23T03:28:43.778Z,63.07
2017-11-23T03:31:11.643Z,63.45
2017-11-23T03:58:14.589Z,63.52
2017-11-23T04:01:09.469Z,65.00
2017-11-23T04:10:34.739Z,63.66
2017-11-23T04:13:02.503Z,62.50
2017-11-23T04:15:30.110Z,62.88
2017-11-23T04:17:57.699Z,63.80
2017-11-23T04:20:25.510Z,64.66
2017-11-23T04:22:53.133Z,64.66
2017-11-23T04:25:20.895Z,64.02
2017-11-23T04:27:48.649Z,63.96
2017-11-23T04:30:16.292Z,64.49
2017-11-23T04:32:43.980Z,65.60
2017-11-23T04:35:17.150Z,66.08
2017-11-23T04:37:44.967Z,63.84
2017-11-23T04:40:12.611Z,63.85
2017-11-23T04:42:49.147Z,63.54
2017-11-23T04:45:16.862Z,64.88
2017-11-23T04:58:15.247Z,63.06
2017-11-23T05:00:43.721Z,61.94
2017-11-23T05:03:21.977Z,62.41
2017-11-23T05:05:49.563Z,63.16
2017-11-23T05:11:42.765Z,62.61
2017-11-23T05:14:13.106Z,63.67
2017-11-23T05:16:40.667Z,64.84
2017-11-23T05:19:09.191Z,64.07
2017-11-23T05:21:36.797Z,64.23
2017-11-23T05:24:04.845Z,64.49
2017-11-23T05:26:32.395Z,75.65
2017-11-23T05:29:02.747Z,80.86
2017-11-23T05:31:30.370Z,63.33
2017-11-23T05:33:57.995Z,62.30
2017-11-23T05:36:25.539Z,62.74
2017-11-23T05:38:53.206Z,61.85
2017-11-23T05:41:20.772Z,61.31
2017-11-23T05:43:48.543Z,61.36
2017-11-23T05:46:16.130Z,61.20
2017-11-23T05:48:43.701Z,59.83
2017-11-23T05:51:11.239Z,58.39
2017-11-23T05:53:40.288Z,58.33
2017-11-23T05:56:07.886Z,57.54
2017-11-23T05:58:35.444Z,57.58
2017-11-23T06:01:03.041Z,56.46
2017-11-23T06:03:30.603Z,56.57
2017-11-23T06:05:58.166Z,55.39
2017-11-23T06:08:25.743Z,57.62
2017-11-23T06:10:53.897Z,57.20
2017-11-23T06:13:21.697Z,56.32
2017-11-23T06:15:49.332Z,53.95
2017-11-23T06:18:17.141Z,52.24
2017-11-23T06:20:44.805Z,49.70
2017-11-23T06:23:12.714Z,48.82
2017-11-23T06:25:40.368Z,47.82
2017-11-23T06:28:08.588Z,46.31
2017-11-23T06:30:36.218Z,46.83
2017-11-23T06:33:03.997Z,46.34
2017-11-23T06:35:31.647Z,47.62
2017-11-23T06:37:59.441Z,48.55
2017-11-23T06:40:27.264Z,47.34
2017-11-23T06:42:54.904Z,44.96
2017-11-23T06:45:22.536Z,43.77
2017-11-23T06:47:50.105Z,43.07
2017-11-23T06:50:18.480Z,41.84
2017-11-23T06:52:46.221Z,39.12
2017-11-23T06:55:13.980Z,39.78
2017-11-23T06:57:41.507Z,39.35
2017-11-23T07:00:09.230Z,39.38
2017-11-23T07:02:36.985Z,41.06
2017-11-23T07:05:04.748Z,38.87
2017-11-23T07:07:32.931Z,38.58
2017-11-23T07:10:00.546Z,40.97
2017-11-23T07:12:28.358Z,40.06
2017-11-23T07:14:56.158Z,36.92
2017-11-23T07:17:23.903Z,36.92
2017-11-23T07:19:52.355Z,36.74
2017-11-23T07:22:20.636Z,34.72
2017-11-23T07:24:48.734Z,34.77
2017-11-23T07:27:16.551Z,33.96
2017-11-23T07:29:44.160Z,34.08
2017-11-23T07:32:11.835Z,33.51
2017-11-23T07:34:39.456Z,32.62
2017-11-23T07:37:07.675Z,32.68
2017-11-23T07:39:35.450Z,31.81
2017-11-23T07:42:03.106Z,32.41
2017-11-23T07:44:30.768Z,33.58
2017-11-23T07:46:58.373Z,31.87
2017-11-23T07:49:26.136Z,31.86
2017-11-23T07:51:54.525Z,32.89
2017-11-23T07:54:22.331Z,33.75
2017-11-23T07:56:49.857Z,31.55
2017-11-23T07:59:17.400Z,31.49
2017-11-23T08:01:46.696Z,29.21
2017-11-23T08:04:14.276Z,31.90
2017-11-23T08:06:51.910Z,30.68
2017-11-23T08:09:19.672Z,31.44
2017-11-23T08:11:49.160Z,34.09
2017-11-23T08:14:16.738Z,33.46
2017-11-23T08:16:44.271Z,34.48
2017-11-23T08:19:12.108Z,31.33
2017-11-23T08:21:39.893Z,30.92
2017-11-23T08:24:07.642Z,29.22
2017-11-23T08:26:35.699Z,29.23
2017-11-23T08:29:03.302Z,27.60
2017-11-23T08:31:32.051Z,28.81
2017-11-23T08:33:59.596Z,28.00
2017-11-23T08:36:27.260Z,28.13
2017-11-23T08:38:54.861Z,28.65
2017-11-23T08:41:23.149Z,27.66
2017-11-23T08:43:51.015Z,28.03
2017-11-23T08:46:18.615Z,26.97
2017-11-23T08:48:46.367Z,26.23
2017-11-23T08:51:14.131Z,27.42
2017-11-23T08:53:41.882Z,25.48
2017-11-23T08:56:09.756Z,25.27
2017-11-23T08:58:37.535Z,24.87
2017-11-23T09:01:05.156Z,25.39
2017-11-23T09:03:32.709Z,24.34
2017-11-23T09:06:00.464Z,24.98
2017-11-23T09:08:28.277Z,25.47
2017-11-23T09:10:56.081Z,22.69
2017-11-23T09:13:23.684Z,21.99
2017-11-23T09:15:51.316Z,24.36
2017-11-23T09:18:19.111Z,23.08
2017-11-23T09:20:46.695Z,22.86
2017-11-23T09:23:14.382Z,23.72
2017-11-23T09:25:41.998Z,22.57
2017-11-23T09:28:10.413Z,25.46
2017-11-23T09:30:38.151Z,26.98
2017-11-23T09:33:05.941Z,25.33
2017-11-23T09:35:34.162Z,25.97
2017-11-23T09:38:01.943Z,26.45
2017-11-23T09:40:29.934Z,25.05
2017-11-23T09:42:57.765Z,24.48
2017-11-23T09:45:25.338Z,26.00
2017-11-23T09:47:53.849Z,25.61
2017-11-23T09:50:21.395Z,26.01
2017-11-23T09:52:49.106Z,27.51
2017-11-23T09:55:16.938Z,26.95
2017-11-23T09:57:44.679Z,26.25
2017-11-23T10:00:12.455Z,26.75
2017-11-23T10:02:40.861Z,26.51
2017-11-23T10:05:09.037Z,27.28
2017-11-23T10:07:36.736Z,26.56
2017-11-23T10:10:05.351Z,25.81
2017-11-23T10:12:33.420Z,25.72
2017-11-23T10:15:01.345Z,27.47
2017-11-23T10:17:28.879Z,26.91
2017-11-23T10:19:56.665Z,28.15
2017-11-23T10:22:24.325Z,27.25
2017-11-23T10:24:52.141Z,27.80
2017-11-23T10:27:19.945Z,27.46
2017-11-23T10:29:47.678Z,27.37
2017-11-23T10:32:16.186Z,26.48
2017-11-23T10:34:44.013Z,26.90
2017-11-23T10:37:11.774Z,26.93
2017-11-23T10:39:39.478Z,27.74
2017-11-23T10:42:07.254Z,27.65
2017-11-23T10:44:35.030Z,28.01
2017-11-23T10:47:02.826Z,27.88
2017-11-23T10:49:30.892Z,27.59
2017-11-23T10:51:58.671Z,27.97
2017-11-23T10:54:26.266Z,27.61
2017-11-23T10:56:53.787Z,29.37
2017-11-23T10:59:21.307Z,28.99
2017-11-23T11:01:49.582Z,28.27
2017-11-23T11:04:17.353Z,28.46
2017-11-23T11:06:45.177Z,28.80
2017-11-23T11:09:12.799Z,29.12
2017-11-23T11:11:41.834Z,28.86
2017-11-23T11:14:09.360Z,29.83
2017-11-23T11:16:37.111Z,29.81
2017-11-23T11:19:06.438Z,29.71
2017-11-23T11:21:34.935Z,29.45
2017-11-23T11:24:04.052Z,29.41
2017-11-23T11:26:31.991Z,29.80
2017-11-23T11:29:01.733Z,30.37
2017-11-23T11:31:29.480Z,31.25
2017-11-23T11:33:57.028Z,32.68
2017-11-23T11:36:24.826Z,32.02
2017-11-23T11:38:52.421Z,31.82
2017-11-23T11:41:20.192Z,32.50
2017-11-23T11:43:47.845Z,32.52
2017-11-23T11:46:16.133Z,31.59
2017-11-23T11:48:44.276Z,32.07
2017-11-23T11:51:12.580Z,32.44
2017-11-23T11:53:40.399Z,33.40
2017-11-23T11:56:08.416Z,33.42
2017-11-23T11:58:35.963Z,33.88
2017-11-23T12:01:03.642Z,33.88
2017-11-23T12:03:31.236Z,33.94
2017-11-23T12:05:58.822Z,34.01
2017-11-23T12:08:26.538Z,34.07
2017-11-23T12:10:54.319Z,33.94
2017-11-23T12:13:22.864Z,33.85
2017-11-23T12:16:02.152Z,34.42
2017-11-23T12:18:41.343Z,34.74
2017-11-23T12:24:11.904Z,34.40
2017-11-23T12:26:39.509Z,35.15
2017-11-23T12:29:18.875Z,34.77
2017-11-23T12:31:46.475Z,35.12
2017-11-23T12:34:14.058Z,35.17
2017-11-23T12:36:41.651Z,34.77
2017-11-23T12:39:09.317Z,35.07
2017-11-23T12:41:36.914Z,34.42
2017-11-23T12:44:05.280Z,34.87
2017-11-23T12:46:33.451Z,34.45
2017-11-23T12:49:01.043Z,34.75
2017-11-23T12:51:28.656Z,34.40
2017-11-23T12:53:56.350Z,34.75
2017-11-23T12:56:24.006Z,35.36
2017-11-23T12:58:51.685Z,35.16
2017-11-23T13:01:19.388Z,35.29
2017-11-23T13:03:47.082Z,35.66
2017-11-23T13:06:14.714Z,36.12
2017-11-23T13:08:42.338Z,35.82
2017-11-23T13:11:09.895Z,35.67
2017-11-23T13:13:37.520Z,35.60
2017-11-23T13:16:05.554Z,35.92
2017-11-23T13:18:33.400Z,35.22
2017-11-23T13:21:01.229Z,35.50
2017-11-23T13:23:28.919Z,35.04
2017-11-23T13:25:56.547Z,35.57
2017-11-23T13:28:24.349Z,35.38
2017-11-23T13:30:51.933Z,35.69
2017-11-23T13:33:19.498Z,35.59
2017-11-23T13:35:47.123Z,35.50
2017-11-23T13:38:14.680Z,35.89
2017-11-23T13:40:42.301Z,36.51
2017-11-23T13:43:09.924Z,36.22
2017-11-23T13:45:37.555Z,36.61
2017-11-23T13:48:05.195Z,36.87
2017-11-23T13:50:33.253Z,37.05
2017-11-23T13:53:01.100Z,37.35
2017-11-23T13:55:29.075Z,37.60
2017-11-23T13:57:56.731Z,37.29
2017-11-23T14:00:24.653Z,38.17
2017-11-23T14:02:52.253Z,38.75
2017-11-23T14:05:19.847Z,38.90
2017-11-23T14:07:48.424Z,38.30
2017-11-23T14:10:15.969Z,38.54
2017-11-23T14:12:43.637Z,38.32
2017-11-23T14:15:11.288Z,39.38
2017-11-23T14:17:39.315Z,39.79
2017-11-23T14:20:07.965Z,39.67
2017-11-23T14:22:35.665Z,39.18
2017-11-23T14:25:03.248Z,39.77
2017-11-23T14:27:30.835Z,40.91
2017-11-23T14:29:58.604Z,40.87
2017-11-23T14:32:26.975Z,40.78
2017-11-23T14:34:54.653Z,41.71
2017-11-23T14:37:22.262Z,42.37
2017-11-23T14:39:49.871Z,43.54
2017-11-23T14:42:17.457Z,43.28
2017-11-23T14:44:45.385Z,42.42
2017-11-23T14:47:13.197Z,42.51
2017-11-23T14:49:40.819Z,44.05
2017-11-23T14:52:08.462Z,43.02
2017-11-23T14:54:36.523Z,43.63
2017-11-23T14:57:04.130Z,45.54
2017-11-23T14:59:32.559Z,44.05
2017-11-23T15:02:00.241Z,45.19
2017-11-23T15:04:28.691Z,45.65
2017-11-23T15:06:56.347Z,46.58
2017-11-23T15:09:24.076Z,46.49
2017-11-23T15:11:51.634Z,48.07
2017-11-23T15:14:19.397Z,47.36
2017-11-23T15:16:47.136Z,47.42
2017-11-23T15:19:15.457Z,47.24
2017-11-23T15:21:43.082Z,48.06
2017-11-23T15:24:10.855Z,47.27
2017-11-23T15:26:38.540Z,45.93
2017-11-23T15:29:06.162Z,46.71
2017-11-23T15:31:34.222Z,46.15
2017-11-23T15:34:01.960Z,47.85
2017-11-23T15:36:29.848Z,46.74
2017-11-23T15:38:57.650Z,45.96
2017-11-23T15:41:25.504Z,45.21
2017-11-23T15:43:53.166Z,46.38
2017-11-23T15:46:20.936Z,46.97
2017-11-23T15:48:48.852Z,46.51
2017-11-23T15:51:16.563Z,46.02
2017-11-23T15:53:44.378Z,46.41
2017-11-23T15:56:12.071Z,46.79
2017-11-23T15:58:41.384Z,46.30
2017-11-23T16:01:09.071Z,46.38
2017-11-23T16:03:37.948Z,46.75
2017-11-23T16:06:05.586Z,46.62
2017-11-23T16:08:33.235Z,47.38
2017-11-23T16:11:02.733Z,47.85
2017-11-23T16:13:31.248Z,47.99
2017-11-23T16:15:59.545Z,50.02
2017-11-23T16:18:27.163Z,50.02
2017-11-23T16:20:54.750Z,49.04
2017-11-23T16:23:22.558Z,49.13
2017-11-23T16:25:50.293Z,58.24
2017-11-23T16:28:17.864Z,51.20
2017-11-23T16:30:45.826Z,50.83
2017-11-23T16:33:16.195Z,48.99
2017-11-23T16:35:43.925Z,49.63
2017-11-23T16:38:16.231Z,49.56
2017-11-23T16:40:44.005Z,49.85
2017-11-23T16:46:36.585Z,49.07
2017-11-23T16:49:10.088Z,48.93
2017-11-23T16:51:58.185Z,49.63
2017-11-23T16:54:31.955Z,49.75
2017-11-23T16:57:05.984Z,49.50
2017-11-23T16:59:39.202Z,50.50
2017-11-23T17:02:15.302Z,50.12
2017-11-23T17:04:48.968Z,49.52
2017-11-23T17:07:22.339Z,50.20
2017-11-23T17:13:01.512Z,51.75
2017-11-23T17:15:36.416Z,50.89
2017-11-23T17:31:43.017Z,52.75
2017-11-23T17:34:10.659Z,51.78
2017-11-23T17:36:39.506Z,53.68
2017-11-23T17:39:07.607Z,52.76
2017-11-23T17:41:35.343Z,52.66
2017-11-23T17:44:03.016Z,52.41
2017-11-23T19:34:40.051Z,58.27
2017-11-23T19:37:07.831Z,57.65
2017-11-23T19:39:36.046Z,56.73
2017-11-23T19:42:03.643Z,58.40
2017-11-23T19:44:31.551Z,59.79
2017-11-23T19:47:00.542Z,59.94
2017-11-23T19:49:28.327Z,59.14
2017-11-23T19:51:56.315Z,57.40
2017-11-23T19:54:24.031Z,59.27
2017-11-23T19:56:51.813Z,60.32
2017-11-23T19:59:19.544Z,61.86
2017-11-23T20:01:47.638Z,59.83
2017-11-23T20:04:16.103Z,58.18
2017-11-23T20:06:43.753Z,59.47
2017-11-23T20:09:11.501Z,59.21
2017-11-23T20:11:39.395Z,59.47
2017-11-23T20:14:08.084Z,60.73
2017-11-23T20:16:35.824Z,60.16
2017-11-23T20:19:04.700Z,59.24
2017-11-23T20:21:32.369Z,60.61
2017-11-23T20:24:02.463Z,59.66
2017-11-23T20:26:32.099Z,58.71
2017-11-23T20:29:00.334Z,59.58
2017-11-23T20:31:28.981Z,62.35
2017-11-23T20:33:56.815Z,63.58
2017-11-23T20:36:24.363Z,63.33
2017-11-23T20:38:52.022Z,62.87
2017-11-23T20:41:19.648Z,62.97
2017-11-23T20:43:47.290Z,63.28
2017-11-23T20:46:15.004Z,62.89
2017-11-23T20:48:42.614Z,61.51
2017-11-23T20:51:16.238Z,62.15
2017-11-23T20:53:45.991Z,63.88
2017-11-23T20:56:15.293Z,63.17
2017-11-23T20:58:43.299Z,64.15
2017-11-23T21:01:11.002Z,62.97
2017-11-23T21:03:39.519Z,62.91
2017-11-23T21:06:07.569Z,62.79
2017-11-23T21:08:42.758Z,62.68
2017-11-23T21:11:10.487Z,62.26
2017-11-23T21:13:48.369Z,61.67
2017-11-23T21:16:16.230Z,61.28
2017-11-23T21:18:45.148Z,62.01
2017-11-23T21:21:13.374Z,61.13
2017-11-23T21:23:42.777Z,62.17
2017-11-23T21:26:10.483Z,62.50
2017-11-23T21:28:39.551Z,61.39
2017-11-23T21:31:07.283Z,60.17
2017-11-23T21:33:35.064Z,61.08
2017-11-23T21:36:02.707Z,61.43
2017-11-23T21:38:30.371Z,61.24
2017-11-23T21:41:00.259Z,61.28
2017-11-23T21:43:27.947Z,61.62
2017-11-23T21:45:55.957Z,62.05
2017-11-23T21:48:23.821Z,61.67
2017-11-23T21:50:51.776Z,60.38
2017-11-23T21:53:19.864Z,61.34
2017-11-23T21:55:51.204Z,60.19
2017-11-23T21:58:18.769Z,62.56
2017-11-23T22:00:46.318Z,61.64
2017-11-23T22:03:15.035Z,62.47
2017-11-23T22:05:43.585Z,61.76
2017-11-23T22:08:12.160Z,61.83
2017-11-23T22:10:39.973Z,62.68
2017-11-23T22:13:07.561Z,62.34
2017-11-23T22:15:35.262Z,61.22
2017-11-23T22:18:02.921Z,62.54
2017-11-23T22:20:31.081Z,62.68
2017-11-23T22:22:58.933Z,60.77
2017-11-23T22:25:27.032Z,61.18
2017-11-23T22:27:54.645Z,61.21
2017-11-23T22:30:22.407Z,60.75
2017-11-23T22:32:49.997Z,61.35
2017-11-23T22:35:18.483Z,61.75
2017-11-23T22:37:46.991Z,61.02
2017-11-23T22:40:14.829Z,60.48
2017-11-23T22:42:42.504Z,61.21
2017-11-23T22:45:10.093Z,60.98
2017-11-23T22:47:37.893Z,61.81
2017-11-23T22:50:05.500Z,62.94
2017-11-23T22:52:33.148Z,63.47
2017-11-23T22:55:00.721Z,62.34
2017-11-23T22:57:28.344Z,63.48
2017-11-23T22:59:55.985Z,62.25
2017-11-23T23:02:24.524Z,61.33
2017-11-23T23:04:52.176Z,61.73
2017-11-23T23:07:19.976Z,61.41
2017-11-23T23:09:47.771Z,62.66
2017-11-23T23:12:15.360Z,62.75
2017-11-23T23:14:42.917Z,62.90
2017-11-23T23:17:10.562Z,62.98
2017-11-23T23:19:38.126Z,62.99
2017-11-23T23:22:06.033Z,62.86
2017-11-23T23:24:33.733Z,63.31
2017-11-23T23:27:01.316Z,62.90
2017-11-23T23:29:29.148Z,63.22
2017-11-23T23:31:56.776Z,64.14
2017-11-23T23:34:24.411Z,63.58
2017-11-23T23:36:52.001Z,62.76
2017-11-23T23:39:19.632Z,62.84
2017-11-23T23:41:47.253Z,62.90
2017-11-23T23:44:15.073Z,63.53
2017-11-23T23:46:42.701Z,66.15
2017-11-23T23:49:11.269Z,63.83
2017-11-23T23:51:39.485Z,62.59
2017-11-23T23:54:07.676Z,61.99
2017-11-23T23:56:35.394Z,64.21
2017-11-23T23:59:03.751Z,63.45
